createdAt,value
2023-01-25T00:01:07.221Z,27.75
2023-01-25T00:03:08.736Z,24.20
2023-01-25T00:05:12.039Z,24.38
2023-01-25T00:07:13.416Z,24.02
2023-01-25T00:09:15.947Z,23.05
2023-01-25T00:11:18.020Z,26.45
2023-01-25T00:13:19.381Z,25.38
2023-01-25T00:15:20.749Z,25.85
2023-01-25T00:17:22.126Z,26.10
2023-01-25T00:19:23.987Z,23.98
2023-01-25T00:21:27.752Z,25.70
2023-01-25T00:23:29.111Z,24.85
2023-01-25T00:25:30.472Z,24.23
2023-01-25T00:27:31.889Z,26.10
2023-01-25T00:30:10.730Z,22.05
2023-01-25T00:34:25.171Z,22.15
2023-01-25T00:36:28.488Z,24.02
2023-01-25T00:38:38.408Z,21.58
2023-01-25T00:40:39.819Z,24.20
2023-01-25T00:42:41.834Z,26.20
2023-01-25T00:44:43.652Z,24.58
2023-01-25T00:46:45.299Z,25.20
2023-01-25T00:48:46.747Z,22.95
2023-01-25T00:50:48.133Z,25.70
2023-01-25T00:52:49.496Z,26.48
2023-01-25T00:54:50.960Z,26.13
2023-01-25T00:56:53.810Z,25.95
2023-01-25T00:58:55.352Z,24.10
2023-01-25T01:00:57.464Z,27.90
2023-01-25T01:02:58.897Z,22.52
2023-01-25T01:05:00.401Z,24.77
2023-01-25T01:07:01.924Z,22.10
2023-01-25T01:09:04.183Z,24.67
2023-01-25T01:11:09.442Z,19.58
2023-01-25T01:13:10.796Z,21.33
2023-01-25T01:15:12.219Z,23.15
2023-01-25T01:17:13.574Z,23.60
2023-01-25T01:19:15.049Z,22.08
2023-01-25T01:21:16.863Z,19.65
2023-01-25T01:23:18.894Z,20.92
2023-01-25T01:25:20.433Z,21.08
2023-01-25T01:27:21.857Z,23.13
2023-01-25T01:29:23.235Z,21.50
2023-01-25T01:31:25.443Z,19.75
2023-01-25T01:33:26.908Z,21.45
2023-01-25T01:35:32.860Z,20.52
2023-01-25T01:37:34.234Z,21.27
2023-01-25T01:39:35.620Z,22.63
2023-01-25T01:41:37.646Z,20.52
2023-01-25T01:43:39.621Z,26.17
2023-01-25T01:45:57.602Z,21.30
2023-01-25T01:47:58.977Z,21.83
2023-01-25T01:50:04.972Z,21.77
2023-01-25T01:52:17.729Z,20.23
2023-01-25T01:54:28.103Z,21.58
2023-01-25T01:56:46.742Z,22.23
2023-01-25T01:58:52.102Z,21.38
2023-01-25T02:00:53.584Z,22.52
2023-01-25T02:02:55.714Z,22.63
2023-01-25T02:05:00.960Z,23.00
2023-01-25T02:07:15.917Z,24.27
2023-01-25T02:09:23.462Z,21.33
2023-01-25T02:11:26.412Z,22.85
2023-01-25T02:13:28.470Z,22.05
2023-01-25T02:15:38.524Z,20.98
2023-01-25T02:17:41.566Z,19.48
2023-01-25T02:19:58.795Z,23.30
2023-01-25T02:22:07.642Z,23.02
2023-01-25T02:24:32.488Z,24.25
2023-01-25T02:26:33.859Z,24.20
2023-01-25T02:28:40.137Z,22.67
2023-01-25T02:30:42.947Z,28.20
2023-01-25T02:32:44.529Z,23.38
2023-01-25T02:34:45.929Z,24.95
2023-01-25T02:36:47.334Z,24.48
2023-01-25T02:38:54.492Z,24.65
2023-01-25T02:41:05.307Z,25.35
2023-01-25T02:43:06.705Z,24.00
2023-01-25T02:45:11.390Z,26.90
2023-01-25T02:47:12.810Z,23.17
2023-01-25T02:49:15.497Z,26.08
2023-01-25T02:51:16.901Z,25.50
2023-01-25T02:53:18.338Z,25.45
2023-01-25T02:55:19.749Z,25.83
2023-01-25T02:57:23.131Z,24.33
2023-01-25T02:59:24.711Z,24.70
2023-01-25T03:01:26.164Z,27.08
2023-01-25T03:03:27.597Z,24.65
2023-01-25T03:05:28.966Z,28.40
2023-01-25T03:07:30.354Z,25.60
2023-01-25T03:09:31.765Z,26.40
2023-01-25T03:11:33.621Z,22.98
2023-01-25T03:13:35.622Z,26.27
2023-01-25T03:15:36.992Z,29.55
2023-01-25T03:17:38.427Z,25.98
2023-01-25T03:19:39.880Z,29.38
2023-01-25T03:21:41.503Z,28.17
2023-01-25T03:23:44.368Z,25.48
2023-01-25T03:25:45.845Z,27.10
2023-01-25T03:27:47.230Z,28.35
2023-01-25T03:29:48.782Z,27.10
2023-01-25T03:31:50.304Z,26.63
2023-01-25T03:33:51.840Z,27.30
2023-01-25T03:35:54.802Z,29.13
2023-01-25T03:37:56.269Z,25.33
2023-01-25T03:39:58.202Z,28.80
2023-01-25T03:41:59.635Z,25.52
2023-01-25T03:44:01.027Z,25.25
2023-01-25T03:46:02.487Z,28.23
2023-01-25T03:48:04.565Z,31.13
2023-01-25T03:50:07.166Z,29.67
2023-01-25T03:52:09.088Z,23.88
2023-01-25T03:54:10.491Z,25.58
2023-01-25T03:56:17.484Z,25.73
2023-01-25T03:58:21.624Z,23.92
2023-01-25T04:00:23.185Z,23.85
2023-01-25T04:02:30.126Z,22.55
2023-01-25T04:04:31.658Z,20.25
2023-01-25T04:06:33.072Z,25.10
2023-01-25T04:08:34.750Z,23.85
2023-01-25T04:10:36.222Z,25.42
2023-01-25T04:12:38.242Z,21.63
2023-01-25T04:14:44.699Z,21.02
2023-01-25T04:16:46.602Z,21.42
2023-01-25T04:18:48.524Z,21.17
2023-01-25T04:20:54.590Z,21.13
2023-01-25T04:22:56.221Z,18.55
2023-01-25T04:24:57.574Z,23.02
2023-01-25T04:26:59.574Z,23.35
2023-01-25T04:29:01.425Z,20.85
2023-01-25T04:31:03.622Z,24.42
2023-01-25T04:33:07.699Z,21.13
2023-01-25T04:35:10.297Z,21.35
2023-01-25T04:37:12.095Z,17.95
2023-01-25T04:39:13.625Z,18.80
2023-01-25T04:41:15.371Z,21.73
2023-01-25T04:43:17.428Z,19.90
2023-01-25T04:45:18.830Z,19.05
2023-01-25T04:47:20.227Z,21.88
2023-01-25T04:49:21.654Z,21.15
2023-01-25T04:51:26.583Z,22.00
2023-01-25T04:53:28.004Z,22.45
2023-01-25T04:55:32.094Z,19.83
2023-01-25T04:57:34.781Z,21.05
2023-01-25T04:59:36.234Z,16.98
2023-01-25T05:01:37.670Z,18.17
2023-01-25T05:03:40.668Z,18.05
2023-01-25T05:05:48.725Z,16.45
2023-01-25T05:07:50.155Z,17.05
2023-01-25T05:09:51.740Z,20.10
2023-01-25T05:11:53.554Z,17.38
2023-01-25T05:13:54.983Z,17.15
2023-01-25T05:15:57.424Z,19.60
2023-01-25T05:17:58.803Z,21.00
2023-01-25T05:20:00.194Z,18.77
2023-01-25T05:22:03.666Z,18.23
2023-01-25T05:24:05.306Z,21.48
2023-01-25T05:26:27.393Z,19.52
2023-01-25T05:28:29.118Z,22.52
2023-01-25T05:30:30.533Z,18.55
2023-01-25T05:32:32.149Z,19.52
2023-01-25T05:34:34.529Z,16.50
2023-01-25T05:36:35.913Z,16.40
2023-01-25T05:38:37.804Z,17.52
2023-01-25T05:40:39.454Z,16.50
2023-01-25T05:42:41.818Z,21.45
2023-01-25T05:44:46.285Z,19.77
2023-01-25T05:46:49.064Z,16.42
2023-01-25T05:48:51.140Z,18.55
2023-01-25T05:50:53.121Z,20.08
2023-01-25T05:52:54.768Z,19.48
2023-01-25T05:54:56.457Z,18.58
2023-01-25T05:56:58.515Z,20.70
2023-01-25T05:59:01.453Z,19.38
2023-01-25T06:01:04.800Z,20.90
2023-01-25T06:03:06.360Z,22.15
2023-01-25T06:05:09.103Z,19.98
2023-01-25T06:07:10.737Z,18.90
2023-01-25T06:09:13.574Z,17.02
2023-01-25T06:11:18.003Z,19.95
2023-01-25T06:13:19.818Z,20.92
2023-01-25T06:15:21.620Z,17.70
2023-01-25T06:17:23.261Z,19.38
2023-01-25T06:19:25.557Z,19.52
2023-01-25T06:21:27.596Z,22.73
2023-01-25T06:23:29.392Z,19.48
2023-01-25T06:25:30.815Z,21.25
2023-01-25T06:27:32.555Z,19.55
2023-01-25T06:29:34.092Z,17.05
2023-01-25T06:31:35.579Z,19.08
2023-01-25T06:33:37.561Z,23.40
2023-01-25T06:35:40.309Z,20.23
2023-01-25T06:37:41.743Z,20.80
2023-01-25T06:39:43.189Z,21.35
2023-01-25T06:41:44.574Z,18.98
2023-01-25T06:43:47.929Z,23.77
2023-01-25T06:45:49.407Z,21.42
2023-01-25T06:47:51.962Z,22.70
2023-01-25T06:49:53.626Z,22.33
2023-01-25T06:51:56.564Z,25.08
2023-01-25T06:54:03.164Z,23.13
2023-01-25T06:56:10.027Z,25.83
2023-01-25T06:58:12.517Z,23.13
2023-01-25T07:00:17.554Z,22.75
2023-01-25T07:02:19.386Z,23.80
2023-01-25T07:04:23.104Z,21.27
2023-01-25T07:06:27.077Z,24.35
2023-01-25T07:08:28.857Z,22.75
2023-01-25T07:10:31.878Z,20.17
2023-01-25T07:12:34.749Z,21.63
2023-01-25T07:14:36.755Z,25.13
2023-01-25T07:16:38.626Z,26.88
2023-01-25T07:18:40.608Z,22.88
2023-01-25T07:20:42.318Z,24.15
2023-01-25T07:22:43.775Z,22.70
2023-01-25T07:24:50.011Z,25.60
2023-01-25T07:26:51.461Z,23.10
2023-01-25T07:28:54.428Z,23.98
2023-01-25T07:30:55.939Z,25.25
2023-01-25T07:32:59.601Z,21.63
2023-01-25T07:35:03.085Z,26.52
2023-01-25T07:37:04.454Z,27.45
2023-01-25T07:39:06.850Z,26.80
2023-01-25T07:41:08.310Z,24.60
2023-01-25T07:43:09.722Z,23.48
2023-01-25T07:45:11.771Z,24.55
2023-01-25T07:47:13.789Z,24.15
2023-01-25T07:49:15.185Z,24.35
2023-01-25T07:51:26.877Z,24.88
2023-01-25T07:53:28.249Z,25.40
2023-01-25T07:55:31.146Z,26.85
2023-01-25T07:57:32.533Z,25.98
2023-01-25T07:59:34.177Z,24.35
2023-01-25T08:01:36.928Z,28.88
2023-01-25T08:03:39.579Z,23.83
2023-01-25T08:05:44.896Z,27.90
2023-01-25T08:07:47.321Z,27.27
2023-01-25T08:09:48.903Z,26.92
2023-01-25T08:11:50.532Z,22.83
2023-01-25T08:13:52.287Z,28.60
2023-01-25T08:15:56.487Z,25.45
2023-01-25T08:18:01.121Z,27.23
2023-01-25T08:20:03.267Z,26.05
2023-01-25T08:22:08.116Z,23.60
2023-01-25T08:24:09.945Z,25.73
2023-01-25T08:26:17.564Z,25.58
2023-01-25T08:28:19.207Z,29.95
2023-01-25T08:30:20.753Z,27.27
2023-01-25T08:32:22.195Z,22.13
2023-01-25T08:34:24.503Z,27.67
2023-01-25T08:36:28.213Z,24.55
2023-01-25T08:38:30.064Z,25.42
2023-01-25T08:40:31.578Z,24.60
2023-01-25T08:42:32.948Z,29.52
2023-01-25T08:44:34.321Z,24.73
2023-01-25T08:46:36.002Z,25.58
2023-01-25T08:48:37.979Z,24.45
2023-01-25T08:50:39.385Z,24.98
2023-01-25T08:52:40.779Z,26.65
2023-01-25T08:54:44.734Z,27.77
2023-01-25T08:56:46.185Z,28.38
2023-01-25T08:58:49.614Z,24.85
2023-01-25T09:00:51.594Z,27.20
2023-01-25T09:02:53.231Z,29.50
2023-01-25T09:04:54.943Z,24.63
2023-01-25T09:06:56.318Z,25.77
2023-01-25T09:09:00.180Z,25.05
2023-01-25T09:11:07.200Z,26.98
2023-01-25T09:13:08.950Z,26.90
2023-01-25T09:15:10.911Z,26.02
2023-01-25T09:17:13.074Z,30.50
2023-01-25T09:19:14.632Z,30.95
2023-01-25T09:21:17.802Z,30.27
2023-01-25T09:23:22.835Z,30.77
2023-01-25T09:25:24.204Z,29.50
2023-01-25T09:27:26.062Z,31.20
2023-01-25T09:29:27.891Z,26.48
2023-01-25T09:31:32.478Z,30.00
2023-01-25T09:33:38.524Z,30.33
2023-01-25T09:35:43.010Z,29.30
2023-01-25T09:37:44.749Z,31.17
2023-01-25T09:39:46.390Z,31.33
2023-01-25T09:42:15.358Z,29.20
2023-01-25T09:44:32.114Z,33.10
2023-01-25T09:46:39.979Z,30.00
2023-01-25T09:50:03.216Z,32.35
2023-01-25T09:51:34.109Z,29.90
2023-01-25T09:53:40.761Z,29.77
2023-01-25T09:55:42.614Z,32.92
2023-01-25T09:57:46.572Z,31.40
2023-01-25T09:59:51.460Z,27.83
2023-01-25T10:02:01.888Z,29.35
2023-01-25T10:04:09.505Z,32.08
2023-01-25T10:06:13.881Z,33.83
2023-01-25T10:08:53.014Z,32.90
2023-01-25T10:11:11.871Z,29.63
2023-01-25T10:13:21.546Z,31.20
2023-01-25T10:15:28.885Z,33.85
2023-01-25T10:20:10.384Z,30.13
2023-01-25T10:22:17.439Z,34.70
2023-01-25T10:24:28.053Z,32.90
2023-01-25T10:26:38.655Z,30.42
2023-01-25T10:29:07.469Z,32.10
2023-01-25T10:31:22.713Z,32.30
2023-01-25T10:33:24.355Z,33.15
2023-01-25T10:35:41.249Z,32.03
2023-01-25T10:37:44.952Z,34.55
2023-01-25T10:40:18.343Z,31.40
2023-01-25T10:42:20.653Z,33.03
2023-01-25T10:44:24.728Z,30.05
2023-01-25T10:46:26.776Z,36.17
2023-01-25T10:48:35.671Z,33.45
2023-01-25T10:50:37.089Z,37.40
2023-01-25T10:52:38.923Z,37.03
2023-01-25T10:54:40.452Z,31.95
2023-01-25T10:56:43.651Z,30.58
2023-01-25T10:58:54.156Z,28.25
2023-01-25T11:00:56.171Z,31.42
2023-01-25T11:02:58.268Z,25.50
2023-01-25T11:05:26.000Z,29.55
2023-01-25T11:07:29.959Z,27.88
2023-01-25T11:09:39.298Z,25.45
2023-01-25T11:11:41.629Z,26.27
2023-01-25T11:13:43.652Z,31.00
2023-01-25T11:15:51.620Z,30.95
2023-01-25T11:18:16.140Z,30.35
2023-01-25T11:20:23.485Z,32.28
2023-01-25T11:24:34.288Z,25.33
2023-01-25T11:26:38.366Z,25.58
2023-01-25T11:28:40.303Z,25.17
2023-01-25T11:30:42.276Z,28.33
2023-01-25T11:32:43.827Z,28.83
2023-01-25T11:34:45.439Z,22.33
2023-01-25T11:37:16.645Z,28.15
2023-01-25T11:39:37.650Z,27.73
2023-01-25T11:42:01.971Z,29.23
2023-01-25T11:44:37.082Z,24.50
2023-01-25T11:47:02.944Z,25.00
2023-01-25T11:49:28.872Z,25.63
2023-01-25T11:51:45.537Z,28.67
2023-01-25T11:54:11.497Z,23.08
2023-01-25T11:56:36.963Z,23.38
2023-01-25T11:59:05.586Z,26.25
2023-01-25T12:01:25.118Z,20.90
2023-01-25T12:03:51.184Z,21.70
2023-01-25T12:08:38.529Z,20.83
2023-01-25T12:10:55.111Z,20.17
2023-01-25T12:13:03.678Z,22.60
2023-01-25T12:15:16.784Z,21.33
2023-01-25T12:17:52.284Z,22.55
2023-01-25T12:21:00.415Z,19.80
2023-01-25T12:23:27.837Z,19.38
2023-01-25T12:25:47.270Z,18.95
2023-01-25T12:28:00.958Z,21.48
2023-01-25T12:31:01.141Z,22.52
2023-01-25T12:33:14.970Z,23.95
2023-01-25T12:35:39.998Z,19.23
2023-01-25T12:37:44.581Z,23.35
2023-01-25T12:39:58.145Z,18.35
2023-01-25T12:44:23.809Z,21.23
2023-01-25T12:46:33.924Z,19.88
2023-01-25T12:48:41.606Z,22.05
2023-01-25T12:50:56.680Z,22.73
2023-01-25T12:53:05.059Z,17.27
2023-01-25T12:55:15.283Z,23.15
2023-01-25T12:57:27.380Z,21.10
2023-01-25T12:59:32.099Z,24.55
2023-01-25T13:01:55.458Z,25.30
2023-01-25T13:04:41.755Z,21.88
2023-01-25T13:06:51.896Z,23.35
2023-01-25T13:09:07.981Z,25.90
2023-01-25T13:11:22.075Z,24.30
2023-01-25T13:13:29.221Z,25.55
2023-01-25T13:15:39.207Z,22.45
2023-01-25T13:17:41.272Z,26.25
2023-01-25T13:19:43.520Z,24.48
2023-01-25T13:21:47.045Z,26.65
2023-01-25T13:24:18.523Z,22.48
2023-01-25T13:26:29.273Z,25.02
2023-01-25T13:28:43.347Z,21.10
2023-01-25T13:30:53.115Z,26.52
2023-01-25T13:32:58.559Z,25.00
2023-01-25T13:35:01.394Z,26.70
2023-01-25T13:37:17.211Z,27.48
2023-01-25T13:39:24.307Z,22.85
2023-01-25T13:41:25.807Z,27.65
2023-01-25T13:43:27.350Z,26.05
2023-01-25T13:45:30.159Z,21.77
2023-01-25T13:47:33.224Z,23.98
2023-01-25T13:49:42.720Z,25.58
2023-01-25T13:51:44.300Z,26.27
2023-01-25T13:53:55.945Z,26.13
2023-01-25T13:55:58.361Z,22.40
2023-01-25T13:58:38.561Z,21.27
2023-01-25T14:00:51.528Z,23.50
2023-01-25T14:02:56.014Z,26.70
2023-01-25T14:04:58.456Z,26.13
2023-01-25T14:07:02.853Z,25.42
2023-01-25T14:09:10.842Z,24.30
2023-01-25T14:11:22.355Z,25.27
2023-01-25T14:13:24.361Z,24.05
2023-01-25T14:15:28.923Z,26.13
2023-01-25T14:17:30.375Z,27.95
2023-01-25T14:19:32.116Z,24.90
2023-01-25T14:21:33.767Z,24.23
2023-01-25T14:23:35.159Z,20.60
2023-01-25T14:25:40.221Z,27.77
2023-01-25T14:27:51.098Z,25.95
2023-01-25T14:29:52.570Z,24.90
2023-01-25T14:31:54.046Z,24.98
2023-01-25T14:33:58.378Z,26.67
2023-01-25T14:36:22.778Z,28.42
2023-01-25T14:38:30.706Z,24.67
2023-01-25T14:40:32.166Z,27.08
2023-01-25T14:42:33.736Z,26.90
2023-01-25T14:44:35.342Z,24.50
2023-01-25T14:46:38.425Z,22.90
2023-01-25T14:48:42.995Z,28.88
2023-01-25T14:50:44.518Z,22.25
2023-01-25T14:52:45.912Z,27.30
2023-01-25T14:54:53.849Z,24.83
2023-01-25T14:57:00.704Z,25.15
2023-01-25T14:59:04.464Z,24.35
2023-01-25T15:01:28.660Z,23.95
2023-01-25T15:03:31.444Z,23.52
2023-01-25T15:05:37.106Z,25.45
2023-01-25T15:07:48.004Z,23.45
2023-01-25T15:10:15.605Z,20.98
2023-01-25T15:12:16.934Z,23.33
2023-01-25T15:14:21.433Z,24.85
2023-01-25T15:16:33.282Z,24.55
2023-01-25T15:18:43.873Z,21.00
2023-01-25T15:20:49.455Z,21.45
2023-01-25T15:22:50.822Z,25.65
2023-01-25T15:24:58.301Z,22.38
2023-01-25T15:27:00.186Z,22.70
2023-01-25T15:29:11.245Z,21.50
2023-01-25T15:31:22.067Z,25.02
2023-01-25T15:33:26.068Z,26.08
2023-01-25T15:35:28.697Z,22.95
2023-01-25T15:37:30.062Z,26.38
2023-01-25T15:39:32.579Z,25.52
2023-01-25T15:41:33.973Z,23.75
2023-01-25T15:43:35.444Z,26.33
2023-01-25T15:45:36.976Z,25.10
2023-01-25T15:47:38.950Z,26.95
2023-01-25T15:49:40.446Z,24.95
2023-01-25T15:51:41.804Z,31.20
2023-01-25T15:53:43.409Z,28.52
2023-01-25T15:55:49.783Z,27.85
2023-01-25T15:57:51.360Z,26.63
2023-01-25T15:59:55.583Z,26.33
2023-01-25T16:01:57.027Z,33.75
2023-01-25T16:03:59.812Z,31.95
2023-01-25T16:06:04.096Z,28.67
2023-01-25T16:08:05.737Z,33.30
2023-01-25T16:10:19.147Z,30.40
2023-01-25T16:12:22.219Z,26.58
2023-01-25T16:14:29.000Z,30.20
2023-01-25T16:16:30.579Z,26.33
2023-01-25T16:18:32.703Z,28.48
2023-01-25T16:20:34.122Z,34.03
2023-01-25T16:22:35.486Z,34.20
2023-01-25T16:24:39.426Z,36.72
2023-01-25T16:26:54.275Z,35.33
2023-01-25T16:28:55.839Z,36.53
2023-01-25T16:30:58.983Z,34.35
2023-01-25T16:33:00.675Z,34.95
2023-01-25T16:35:02.257Z,33.25
2023-01-25T16:37:03.706Z,35.28
2023-01-25T16:39:14.911Z,38.92
2023-01-25T16:41:16.944Z,42.65
2023-01-25T16:43:18.635Z,35.60
2023-01-25T16:45:20.107Z,38.35
2023-01-25T16:47:21.484Z,36.05
2023-01-25T16:49:28.067Z,35.97
2023-01-25T16:51:29.589Z,43.67
2023-01-25T16:53:30.951Z,42.38
2023-01-25T16:55:32.477Z,34.88
2023-01-25T16:57:33.832Z,38.67
2023-01-25T16:59:35.253Z,41.20
2023-01-25T17:01:39.798Z,41.75
2023-01-25T17:03:41.753Z,42.47
2023-01-25T17:05:43.141Z,42.72
2023-01-25T17:07:49.744Z,37.30
2023-01-25T17:09:51.192Z,38.60
2023-01-25T17:11:53.919Z,36.90
2023-01-25T17:13:57.773Z,38.63
2023-01-25T17:16:00.749Z,37.88
2023-01-25T17:18:02.161Z,39.05
2023-01-25T17:20:04.777Z,42.53
2023-01-25T17:22:06.149Z,44.78
2023-01-25T17:24:08.481Z,45.05
2023-01-25T17:26:12.601Z,44.30
2023-01-25T17:28:14.008Z,45.95
2023-01-25T17:30:15.517Z,47.00
2023-01-25T17:32:16.950Z,45.38
2023-01-25T17:34:19.200Z,48.22
2023-01-25T17:36:20.668Z,48.40
2023-01-25T17:38:23.836Z,45.85
2023-01-25T17:40:25.210Z,49.22
2023-01-25T17:42:26.593Z,48.35
2023-01-25T17:44:28.115Z,53.58
2023-01-25T17:46:33.285Z,52.83
2023-01-25T17:48:34.760Z,50.22
2023-01-25T17:50:37.059Z,52.78
2023-01-25T17:52:38.474Z,45.92
2023-01-25T17:54:40.213Z,54.13
2023-01-25T17:56:41.646Z,52.05
2023-01-25T17:58:43.054Z,51.20
2023-01-25T18:00:44.534Z,50.50
2023-01-25T18:02:46.116Z,51.42
2023-01-25T18:04:47.509Z,53.72
2023-01-25T18:06:48.937Z,57.05
2023-01-25T18:08:52.545Z,55.25
2023-01-25T18:10:58.625Z,48.20
2023-01-25T18:13:04.823Z,53.97
2023-01-25T18:15:07.411Z,51.53
2023-01-25T18:17:08.821Z,59.63
2023-01-25T18:19:10.869Z,55.97
2023-01-25T18:21:15.218Z,56.92
2023-01-25T18:23:16.627Z,59.70
2023-01-25T18:25:35.630Z,60.35
2023-01-25T18:27:41.598Z,59.25
2023-01-25T18:30:04.622Z,54.45
2023-01-25T18:32:06.672Z,48.53
2023-01-25T18:34:08.169Z,55.42
2023-01-25T18:36:16.415Z,53.53
2023-01-25T18:38:17.819Z,57.42
2023-01-25T18:40:19.797Z,56.40
2023-01-25T18:42:23.580Z,57.17
2023-01-25T18:44:24.982Z,53.58
2023-01-25T18:46:26.448Z,50.97
2023-01-25T18:48:31.792Z,52.53
2023-01-25T18:50:33.593Z,46.85
2023-01-25T18:52:35.857Z,55.13
2023-01-25T18:54:37.360Z,56.45
2023-01-25T18:56:38.723Z,55.15
2023-01-25T18:58:40.783Z,52.55
2023-01-25T19:00:42.179Z,52.22
2023-01-25T19:02:43.550Z,54.45
2023-01-25T19:04:45.687Z,53.40
2023-01-25T19:06:47.046Z,51.40
2023-01-25T19:08:54.164Z,48.85
2023-01-25T19:11:06.140Z,48.15
2023-01-25T19:13:07.560Z,47.40
2023-01-25T19:15:09.533Z,51.45
2023-01-25T19:17:11.181Z,44.70
2023-01-25T19:19:12.770Z,49.45
2023-01-25T19:21:16.387Z,45.92
2023-01-25T19:23:17.739Z,45.30
2023-01-25T19:25:19.186Z,44.45
2023-01-25T19:27:20.560Z,50.33
2023-01-25T19:29:22.285Z,48.85
2023-01-25T19:31:25.519Z,44.75
2023-01-25T19:33:26.976Z,50.80
2023-01-25T19:35:28.387Z,47.58
2023-01-25T19:37:29.746Z,48.33
2023-01-25T19:39:31.286Z,52.25
2023-01-25T19:41:33.856Z,51.67
2023-01-25T19:43:35.306Z,49.65
2023-01-25T19:45:36.665Z,48.75
2023-01-25T19:47:38.101Z,47.17
2023-01-25T19:49:39.500Z,48.42
2023-01-25T19:51:45.271Z,54.53
2023-01-25T19:53:52.100Z,51.20
2023-01-25T19:55:53.464Z,51.50
2023-01-25T19:57:54.918Z,55.15
2023-01-25T19:59:56.348Z,48.78
2023-01-25T20:01:59.296Z,53.25
2023-01-25T20:06:27.584Z,55.47
2023-01-25T20:08:30.715Z,49.63
2023-01-25T20:10:34.255Z,46.25
2023-01-25T20:12:35.626Z,46.25
2023-01-25T20:14:41.286Z,43.67
2023-01-25T20:16:42.807Z,50.65
2023-01-25T20:18:46.290Z,46.22
2023-01-25T20:21:01.019Z,51.45
2023-01-25T20:23:02.396Z,43.67
2023-01-25T20:25:04.015Z,40.75
2023-01-25T20:27:07.295Z,45.75
2023-01-25T20:29:10.712Z,44.45
2023-01-25T20:31:21.001Z,47.25
2023-01-25T20:33:22.409Z,48.35
2023-01-25T20:35:23.798Z,40.65
2023-01-25T20:37:25.159Z,46.72
2023-01-25T20:39:26.530Z,50.58
2023-01-25T20:41:27.997Z,50.92
2023-01-25T20:43:31.232Z,47.70
2023-01-25T20:45:34.732Z,46.33
2023-01-25T20:47:36.155Z,51.03
2023-01-25T20:49:38.190Z,49.88
2023-01-25T20:51:39.853Z,49.42
2023-01-25T20:53:42.213Z,48.33
2023-01-25T20:55:45.377Z,46.85
2023-01-25T20:57:46.884Z,48.75
2023-01-25T20:59:48.252Z,47.72
2023-01-25T21:01:50.522Z,43.05
2023-01-25T21:03:54.344Z,47.97
2023-01-25T21:05:58.286Z,45.35
2023-01-25T21:07:59.713Z,44.03
2023-01-25T21:10:01.099Z,41.95
2023-01-25T21:12:02.560Z,46.08
2023-01-25T21:14:04.841Z,40.00
2023-01-25T21:16:09.996Z,44.47
2023-01-25T21:18:11.413Z,45.42
2023-01-25T21:20:12.838Z,43.25
2023-01-25T21:22:14.217Z,42.42
2023-01-25T21:24:15.835Z,43.80
2023-01-25T21:26:22.924Z,43.97
2023-01-25T21:28:24.380Z,43.08
2023-01-25T21:30:28.235Z,47.45
2023-01-25T21:32:29.651Z,47.80
2023-01-25T21:34:33.419Z,44.88
2023-01-25T21:36:34.848Z,47.97
2023-01-25T21:38:36.342Z,47.63
2023-01-25T21:40:37.835Z,43.33
2023-01-25T21:42:39.175Z,42.92
2023-01-25T21:44:59.157Z,43.83
2023-01-25T21:49:40.437Z,38.72
2023-01-25T21:51:49.821Z,44.97
2023-01-25T21:53:51.235Z,47.67
2023-01-25T21:55:56.905Z,39.15
2023-01-25T21:57:58.398Z,40.47
2023-01-25T21:59:59.841Z,42.50
2023-01-25T22:02:01.211Z,50.20
2023-01-25T22:04:02.654Z,42.97
2023-01-25T22:06:04.116Z,43.92
2023-01-25T22:08:05.737Z,38.00
2023-01-25T22:10:07.578Z,41.13
2023-01-25T22:12:09.312Z,40.25
2023-01-25T22:14:10.685Z,39.53
2023-01-25T22:16:12.748Z,46.22
2023-01-25T22:18:14.137Z,34.70
2023-01-25T22:20:15.813Z,45.45
2023-01-25T22:22:17.171Z,42.83
2023-01-25T22:24:18.625Z,43.75
2023-01-25T22:26:22.524Z,45.22
2023-01-25T22:28:27.176Z,44.50
2023-01-25T22:30:31.007Z,45.90
2023-01-25T22:32:32.456Z,41.90
2023-01-25T22:34:33.890Z,40.83
2023-01-25T22:36:35.444Z,49.00
2023-01-25T22:38:36.879Z,48.42
2023-01-25T22:40:38.270Z,38.08
2023-01-25T22:42:39.655Z,40.50
2023-01-25T22:44:41.031Z,41.97
2023-01-25T22:46:42.450Z,42.45
2023-01-25T22:48:43.868Z,40.25
2023-01-25T22:50:45.480Z,42.85
2023-01-25T22:52:48.863Z,35.80
2023-01-25T22:54:50.804Z,43.85
2023-01-25T22:56:52.212Z,40.22
2023-01-25T22:58:53.972Z,45.00
2023-01-25T23:00:55.468Z,43.90
2023-01-25T23:02:56.882Z,46.67
2023-01-25T23:04:58.317Z,46.40
2023-01-25T23:07:02.882Z,34.72
2023-01-25T23:09:06.183Z,40.63
2023-01-25T23:11:11.011Z,40.08
2023-01-25T23:13:12.387Z,46.13
2023-01-25T23:15:15.593Z,44.40
2023-01-25T23:17:40.624Z,38.13
2023-01-25T23:19:41.996Z,44.17
2023-01-25T23:21:43.455Z,44.72
2023-01-25T23:23:45.230Z,52.45
2023-01-25T23:25:47.141Z,46.60
2023-01-25T23:27:49.376Z,44.20
2023-01-25T23:29:51.688Z,51.05
2023-01-25T23:31:53.107Z,49.20
2023-01-25T23:33:59.190Z,52.45
2023-01-25T23:36:09.938Z,51.20
2023-01-25T23:38:15.106Z,54.83
2023-01-25T23:40:16.822Z,58.30
2023-01-25T23:42:18.311Z,57.35
2023-01-25T23:44:19.701Z,59.47
2023-01-25T23:46:22.147Z,58.10
2023-01-25T23:48:23.668Z,56.10
2023-01-25T23:50:25.113Z,52.92
2023-01-25T23:52:27.035Z,55.20
2023-01-25T23:54:28.930Z,53.67
2023-01-25T23:56:30.337Z,57.42
2023-01-25T23:58:34.849Z,55.60
